Time;durP1;ratioP1;P1;durP2;ratioP2;P2;SDS_P1;SDS_P2;PMS_P1;PMS_P2;Temp;Humidity;BMP_temperature;BMP_pressure;BME280_temperature;BME280_humidity;BME280_pressure;Samples;Min_cycle;Max_cycle;Signal;HPM_P1;HPM_P2
2022/07/31 00:02:06;;;;;;;;;;;;;;;20.26;44.94;101466.19;5048881;28;20014;-56
2022/07/31 00:04:31;;;;;;;;;;;;;;;20.25;45.25;101475.19;5048820;28;19924;-58
2022/07/31 00:06:57;;;;;;;;;;;;;;;20.22;45.21;101470.13;5046240;28;19928;-57
2022/07/31 00:09:22;;;;;;;;;;;;;;;20.17;45.37;101469.69;5050065;28;19920;-58
2022/07/31 00:11:47;;;;;;;;;;;;;;;20.12;45.47;101467.41;5053770;28;19920;-57
2022/07/31 00:14:13;;;;;;;;;;;;;;;20.09;45.45;101457.84;5048830;28;21979;-59
2022/07/31 00:16:38;;;;;;;;;;;;;;;20.06;45.01;101463.44;5050546;28;19948;-60
2022/07/31 00:19:03;;;;;;;;;;;;;;;20.02;45.51;101467.38;5039498;28;21153;-58
2022/07/31 00:21:29;;;;;;;;;;;;;;;19.99;45.48;101467.63;5037258;28;20281;-55
2022/07/31 00:23:55;;;;;;;;;;;;;;;19.97;45.55;101466.91;5047770;28;19916;-57
2022/07/31 00:26:20;;;;;;;;;;;;;;;19.92;45.30;101466.47;5054352;28;19928;-56
2022/07/31 00:28:46;;;;;;;;;;;;;;;19.86;45.47;101469.66;5050892;28;20425;-60
2022/07/31 00:31:12;;;;;;;;;;;;;;;19.83;45.83;101461.88;5047362;28;20020;-55
2022/07/31 00:33:37;;;;;;;;;;;;;;;19.77;45.66;101464.09;5044462;28;20559;-57
2022/07/31 00:36:03;;;;;;;;;;;;;;;19.75;46.09;101466.06;5044282;28;19925;-56
2022/07/31 00:38:28;;;;;;;;;;;;;;;19.72;45.98;101463.66;5046814;28;19955;-56
2022/07/31 00:40:53;;;;;;;;;;;;;;;19.71;46.14;101467.31;5052752;28;19931;-59
2022/07/31 00:43:18;;;;;;;;;;;;;;;19.71;45.73;101464.63;5052703;28;19976;-55
2022/07/31 00:45:44;;;;;;;;;;;;;;;19.70;45.89;101462.09;5051410;28;19983;-56
2022/07/31 00:48:09;;;;;;;;;;;;;;;19.66;46.02;101464.19;5044610;28;19921;-56
2022/07/31 00:50:35;;;;;;;;;;;;;;;19.64;46.02;101452.78;5036570;28;19927;-60
2022/07/31 00:53:00;;;;;;;;;;;;;;;19.65;46.06;101459.81;5040130;28;19921;-57
2022/07/31 00:55:26;;;;;;;;;;;;;;;19.65;46.21;101460.69;5048307;28;19935;-59
2022/07/31 00:57:51;;;;;;;;;;;;;;;19.63;46.27;101451.94;5047725;28;19927;-55
2022/07/31 01:00:16;;;;;;;;;;;;;;;19.62;46.07;101460.94;5046418;28;19940;-55
2022/07/31 01:02:42;;;;;;;;;;;;;;;19.57;46.20;101456.97;5051341;28;19923;-56
2022/07/31 01:05:07;;;;;;;;;;;;;;;19.53;46.55;101455.53;5039728;28;19932;-58
2022/07/31 01:07:33;;;;;;;;;;;;;;;19.48;46.54;101453.25;5043871;28;19973;-56
2022/07/31 01:10:00;;;;;;;;;;;;;;;19.44;46.33;101457.97;5048625;28;20012;-57
2022/07/31 01:12:29;;;;;;;;;;;;;;;19.41;46.52;101452.91;5047304;28;19967;-58
2022/07/31 01:14:56;;;;;;;;;;;;;;;19.41;46.63;101458.25;5046260;28;19933;-58
2022/07/31 01:17:23;;;;;;;;;;;;;;;19.39;46.49;101454.88;5044264;28;19928;-59
2022/07/31 01:19:49;;;;;;;;;;;;;;;19.36;46.62;101449.78;5053260;28;20010;-59
2022/07/31 01:22:15;;;;;;;;;;;;;;;19.34;46.83;101451.72;5042917;28;20011;-57
2022/07/31 01:24:43;;;;;;;;;;;;;;;19.31;46.84;101455.50;5044816;28;19920;-56
2022/07/31 01:27:27;;;;;;;;;;;;;;;19.29;46.72;101448.59;5043420;28;19923;-56
2022/07/31 01:29:55;;;;;;;;;;;;;;;19.23;46.61;101452.63;5048835;28;19955;-59
2022/07/31 01:32:41;;;;;;;;;;;;;;;19.14;47.07;101450.72;5035068;28;19925;-59
2022/07/31 01:35:19;;;;;;;;;;;;;;;19.08;47.02;101449.44;5043812;28;19928;-58
2022/07/31 01:37:49;;;;;;;;;;;;;;;19.03;47.31;101448.94;5045518;28;19921;-60
2022/07/31 01:40:19;;;;;;;;;;;;;;;19.00;47.48;101451.88;5048994;28;20581;-56
2022/07/31 01:42:49;;;;;;;;;;;;;;;18.94;47.24;101447.03;5041996;28;19917;-56
2022/07/31 01:45:17;;;;;;;;;;;;;;;18.92;47.32;101452.47;5045147;28;19916;-59
2022/07/31 01:47:43;;;;;;;;;;;;;;;18.94;47.33;101452.34;5048767;28;19920;-58
2022/07/31 01:50:09;;;;;;;;;;;;;;;18.93;47.66;101442.66;5047698;28;19927;-55
2022/07/31 01:52:35;;;;;;;;;;;;;;;18.93;47.45;101442.66;5039279;28;20380;-59
2022/07/31 01:55:01;;;;;;;;;;;;;;;18.89;47.58;101442.91;5047481;28;19924;-59
2022/07/31 01:57:28;;;;;;;;;;;;;;;18.88;47.92;101449.22;5050129;28;20572;-60
2022/07/31 01:59:55;;;;;;;;;;;;;;;18.86;47.92;101440.47;5041635;28;19928;-59
2022/07/31 02:02:21;;;;;;;;;;;;;;;18.85;48.07;101449.47;5041662;28;19925;-61
2022/07/31 02:04:47;;;;;;;;;;;;;;;18.83;48.10;101451.41;5046479;28;19931;-58
2022/07/31 02:07:14;;;;;;;;;;;;;;;18.83;48.11;101451.41;5046977;28;19924;-60
2022/07/31 02:09:39;;;;;;;;;;;;;;;18.82;48.32;101446.19;5049014;28;19971;-61
2022/07/31 02:12:05;;;;;;;;;;;;;;;18.81;48.02;101456.03;5045349;28;19924;-60
2022/07/31 02:14:30;;;;;;;;;;;;;;;18.80;48.33;101454.34;5046195;28;20428;-61
2022/07/31 02:16:58;;;;;;;;;;;;;;;18.79;48.30;101439.31;5043219;28;19939;-61
2022/07/31 02:19:24;;;;;;;;;;;;;;;18.77;48.31;101438.59;5049197;28;19921;-60
2022/07/31 02:21:49;;;;;;;;;;;;;;;18.73;48.19;101438.00;5045866;28;20279;-60
2022/07/31 02:24:15;;;;;;;;;;;;;;;18.70;48.47;101435.56;5055839;28;19913;-57
2022/07/31 02:26:41;;;;;;;;;;;;;;;18.69;48.27;101443.69;5047510;28;19913;-58
2022/07/31 02:29:09;;;;;;;;;;;;;;;18.70;48.45;101434.72;5049297;28;19931;-59
2022/07/31 02:31:35;;;;;;;;;;;;;;;18.69;48.60;101430.34;5037468;28;19921;-61
2022/07/31 02:34:00;;;;;;;;;;;;;;;18.69;48.42;101435.69;5040436;28;19917;-59
2022/07/31 02:36:28;;;;;;;;;;;;;;;18.67;48.71;101433.16;5037206;28;19931;-61
2022/07/31 02:38:55;;;;;;;;;;;;;;;18.66;48.73;101433.28;5038239;28;19924;-59
2022/07/31 02:41:20;;;;;;;;;;;;;;;18.66;48.75;101425.28;5044790;28;20024;-59
2022/07/31 02:43:46;;;;;;;;;;;;;;;18.64;48.72;101425.41;5045508;28;20007;-60
2022/07/31 02:46:12;;;;;;;;;;;;;;;18.61;48.72;101433.63;5054280;28;19947;-57
2022/07/31 02:48:38;;;;;;;;;;;;;;;18.57;48.68;101426.88;5048711;28;19929;-60
2022/07/31 02:51:03;;;;;;;;;;;;;;;18.47;49.04;101431.25;5048652;28;19921;-59
2022/07/31 02:53:29;;;;;;;;;;;;;;;18.40;49.00;101431.75;5043115;28;20449;-61
2022/07/31 02:55:55;;;;;;;;;;;;;;;18.37;49.26;101428.50;5050506;28;19917;-58
2022/07/31 02:58:21;;;;;;;;;;;;;;;18.35;49.42;101435.75;5050097;28;20006;-60
2022/07/31 03:00:46;;;;;;;;;;;;;;;18.32;49.52;101431.50;5047174;28;19935;-61
2022/07/31 03:03:11;;;;;;;;;;;;;;;18.33;49.24;101427.03;5050858;28;19939;-60
2022/07/31 03:05:37;;;;;;;;;;;;;;;18.34;49.36;101426.06;5052977;28;19974;-60
2022/07/31 03:08:03;;;;;;;;;;;;;;;18.35;49.29;101427.78;5049319;28;19967;-56
2022/07/31 03:10:28;;;;;;;;;;;;;;;18.33;49.53;101425.22;5052531;28;20006;-59
2022/07/31 03:12:54;;;;;;;;;;;;;;;18.33;49.54;101419.06;5047840;28;20019;-58
2022/07/31 03:15:22;;;;;;;;;;;;;;;18.26;49.48;101419.53;5051173;28;19996;-59
2022/07/31 03:17:48;;;;;;;;;;;;;;;18.19;49.58;101426.31;5047134;28;20555;-57
2022/07/31 03:20:14;;;;;;;;;;;;;;;18.16;49.60;101423.03;5053293;28;20319;-59
2022/07/31 03:22:40;;;;;;;;;;;;;;;18.14;49.68;101423.16;5057375;28;20386;-59
2022/07/31 03:25:06;;;;;;;;;;;;;;;18.11;49.76;101423.41;5045238;28;19917;-59
2022/07/31 03:27:31;;;;;;;;;;;;;;;18.11;50.07;101428.72;5051462;28;19924;-59
2022/07/31 03:29:57;;;;;;;;;;;;;;;18.11;49.99;101429.59;5043606;28;19925;-60
2022/07/31 03:32:22;;;;;;;;;;;;;;;18.09;50.05;101423.53;5041791;28;19917;-60
2022/07/31 03:34:47;;;;;;;;;;;;;;;18.07;50.14;101430.81;5047808;28;19940;-59
2022/07/31 03:37:13;;;;;;;;;;;;;;;18.10;50.28;101429.69;5050313;28;19929;-58
2022/07/31 03:39:39;;;;;;;;;;;;;;;18.11;49.98;101432.25;5036805;28;19932;-58
2022/07/31 03:42:05;;;;;;;;;;;;;;;18.13;50.01;101424.13;5046336;28;19920;-57
2022/07/31 03:44:31;;;;;;;;;;;;;;;18.14;49.93;101417.84;5050264;28;19970;-57
2022/07/31 03:46:57;;;;;;;;;;;;;;;18.11;50.12;101421.59;5048502;28;19921;-57
2022/07/31 03:49:23;;;;;;;;;;;;;;;18.11;49.97;101415.41;5043396;28;19925;-61
2022/07/31 03:51:48;;;;;;;;;;;;;;;18.11;50.11;101428.72;5042951;28;19923;-59
2022/07/31 03:54:14;;;;;;;;;;;;;;;18.09;50.07;101428.88;5050797;28;19921;-59
2022/07/31 03:56:41;;;;;;;;;;;;;;;18.07;50.13;101424.63;5048678;28;20402;-59
2022/07/31 03:59:07;;;;;;;;;;;;;;;18.06;50.45;101418.44;5051464;28;19929;-60
2022/07/31 04:01:33;;;;;;;;;;;;;;;18.07;50.18;101419.31;5052543;28;19928;-59
2022/07/31 04:03:59;;;;;;;;;;;;;;;18.07;50.21;101414.81;5048593;28;20364;-59
2022/07/31 04:06:24;;;;;;;;;;;;;;;18.07;50.42;101430.81;5047482;28;19920;-58
2022/07/31 04:08:49;;;;;;;;;;;;;;;18.03;50.21;101423.19;5051024;28;19920;-59
2022/07/31 04:11:15;;;;;;;;;;;;;;;17.94;50.39;101422.88;5047919;28;19928;-58
2022/07/31 04:13:40;;;;;;;;;;;;;;;17.91;50.63;101415.16;5045191;28;19927;-57
2022/07/31 04:16:05;;;;;;;;;;;;;;;17.90;50.52;101418.78;5047444;28;19936;-58
2022/07/31 04:18:31;;;;;;;;;;;;;;;17.88;50.75;101415.41;5044230;28;19925;-58
2022/07/31 04:20:56;;;;;;;;;;;;;;;17.90;50.74;101409.94;5047093;28;20348;-57
2022/07/31 04:23:21;;;;;;;;;;;;;;;17.91;50.78;101409.84;5051607;28;20370;-58
2022/07/31 04:25:46;;;;;;;;;;;;;;;17.95;50.83;101411.28;5050867;28;19931;-59
2022/07/31 04:28:12;;;;;;;;;;;;;;;17.98;51.04;101419.06;5051040;28;19921;-60
2022/07/31 04:30:38;;;;;;;;;;;;;;;18.02;50.77;101411.66;5050567;28;19913;-60
2022/07/31 04:33:03;;;;;;;;;;;;;;;18.06;50.70;101417.63;5028148;28;20384;-59
2022/07/31 04:35:28;;;;;;;;;;;;;;;18.09;50.71;101417.34;5043990;28;20387;-60
2022/07/31 04:37:53;;;;;;;;;;;;;;;18.10;50.89;101413.72;5050067;28;19924;-60
2022/07/31 04:40:19;;;;;;;;;;;;;;;18.11;50.71;101413.63;5049499;28;19932;-58
2022/07/31 04:42:44;;;;;;;;;;;;;;;18.12;50.82;101412.66;5044312;28;20375;-58
2022/07/31 04:45:10;;;;;;;;;;;;;;;18.13;50.77;101409.03;5043167;28;19921;-56
2022/07/31 04:47:36;;;;;;;;;;;;;;;18.12;50.85;101417.97;5044024;28;21160;-57
2022/07/31 04:50:01;;;;;;;;;;;;;;;18.12;51.18;101422.44;5052230;28;19921;-56
2022/07/31 04:52:26;;;;;;;;;;;;;;;18.13;51.16;101417.00;5043504;28;19928;-55
2022/07/31 04:54:51;;;;;;;;;;;;;;;18.18;51.01;101415.78;5046339;28;19967;-56
2022/07/31 04:57:17;;;;;;;;;;;;;;;18.18;51.09;101421.09;5046394;28;19952;-58
2022/07/31 04:59:42;;;;;;;;;;;;;;;18.20;51.25;101409.38;5046192;28;19966;-56
2022/07/31 05:02:07;;;;;;;;;;;;;;;18.25;51.32;101423.16;5046570;28;19924;-59
2022/07/31 05:04:33;;;;;;;;;;;;;;;18.28;51.49;101420.25;5048607;28;20396;-60
2022/07/31 05:06:58;;;;;;;;;;;;;;;18.34;51.28;101420.75;5049040;28;19921;-59
2022/07/31 05:09:23;;;;;;;;;;;;;;;18.35;51.74;101412.63;5047668;28;20268;-60
2022/07/31 05:11:49;;;;;;;;;;;;;;;18.38;51.57;101415.03;5049139;28;19921;-56
2022/07/31 05:14:15;;;;;;;;;;;;;;;18.39;51.84;101413.22;5052090;28;20288;-56
2022/07/31 05:16:41;;;;;;;;;;;;;;;18.42;52.01;101421.81;5042275;28;20399;-56
2022/07/31 05:19:06;;;;;;;;;;;;;;;18.46;52.02;101413.56;5048973;28;19921;-57
2022/07/31 05:21:32;;;;;;;;;;;;;;;18.49;52.22;101418.66;5046869;28;19925;-59
2022/07/31 05:23:58;;;;;;;;;;;;;;;18.54;52.24;101419.13;5045589;28;20395;-59
2022/07/31 05:26:23;;;;;;;;;;;;;;;18.57;52.28;101417.06;5042945;28;19928;-60
2022/07/31 05:28:53;;;;;;;;;;;;;;;18.57;52.29;101413.56;5048361;28;19917;-59
2022/07/31 05:31:18;;;;;;;;;;;;;;;18.59;52.63;101414.28;5044866;28;19987;-61
2022/07/31 05:33:44;;;;;;;;;;;;;;;18.59;52.93;101415.13;5048944;28;20340;-59
2022/07/31 05:36:09;;;;;;;;;;;;;;;18.61;53.01;101404.31;5044840;28;19923;-60
2022/07/31 05:38:35;;;;;;;;;;;;;;;18.66;52.86;101409.31;5046625;28;19921;-57
2022/07/31 05:41:00;;;;;;;;;;;;;;;18.71;53.14;101415.94;5050904;28;19978;-58
2022/07/31 05:43:26;;;;;;;;;;;;;;;18.80;53.23;101432.16;5041212;28;19921;-57
2022/07/31 05:45:51;;;;;;;;;;;;;;;18.83;53.14;101419.41;5034337;28;19916;-59
2022/07/31 05:48:17;;;;;;;;;;;;;;;18.87;53.31;101428.84;5027825;28;22209;-56
2022/07/31 05:50:46;;;;;;;;;;;;;;;18.94;53.43;101428.34;5048525;28;20015;-60
2022/07/31 05:53:14;;;;;;;;;;;;;;;19.00;53.64;101428.72;5044704;28;19917;-57
2022/07/31 05:55:39;;;;;;;;;;;;;;;19.07;53.69;101423.72;5047248;28;19916;-59
2022/07/31 05:58:05;;;;;;;;;;;;;;;19.12;53.63;101436.66;5046138;28;19924;-56
2022/07/31 06:00:30;;;;;;;;;;;;;;;19.13;53.58;101428.56;5042528;28;19955;-58
2022/07/31 06:02:56;;;;;;;;;;;;;;;19.18;53.70;101431.66;5048095;28;20015;-60
2022/07/31 06:05:21;;;;;;;;;;;;;;;19.17;54.02;101429.97;5046081;28;19925;-58
2022/07/31 06:07:47;;;;;;;;;;;;;;;19.18;54.23;101426.34;5042573;28;20335;-58
2022/07/31 06:10:12;;;;;;;;;;;;;;;19.20;54.14;101428.91;5044362;28;19927;-58
2022/07/31 06:12:37;;;;;;;;;;;;;;;19.24;54.04;101418.81;5044932;28;20041;-59
2022/07/31 06:15:03;;;;;;;;;;;;;;;19.28;54.11;101421.06;5046846;28;19921;-59
2022/07/31 06:17:28;;;;;;;;;;;;;;;19.32;54.34;101432.31;5047266;28;19916;-57
2022/07/31 06:19:53;;;;;;;;;;;;;;;19.35;54.47;101432.06;5051806;28;20383;-57
2022/07/31 06:22:18;;;;;;;;;;;;;;;19.38;54.61;101423.81;5054583;28;19986;-61
2022/07/31 06:24:44;;;;;;;;;;;;;;;19.39;54.39;101422.84;5054526;28;19921;-59
2022/07/31 06:27:09;;;;;;;;;;;;;;;19.39;54.84;101412.16;5050066;28;20311;-55
2022/07/31 06:29:34;;;;;;;;;;;;;;;19.41;54.95;101420.91;5051195;28;20537;-61
2022/07/31 06:32:00;;;;;;;;;;;;;;;19.41;54.92;101420.91;5040603;28;20007;-61
2022/07/31 06:34:25;;;;;;;;;;;;;;;19.40;55.48;101415.66;5053460;28;20396;-57
2022/07/31 06:36:50;;;;;;;;;;;;;;;19.41;55.51;101415.56;5048831;28;19928;-61
2022/07/31 06:39:16;;;;;;;;;;;;;;;19.42;55.50;101422.59;5055915;28;19963;-60
2022/07/31 06:41:46;;;;;;;;;;;;;;;19.46;55.66;101417.84;5054807;28;19920;-61
2022/07/31 06:44:11;;;;;;;;;;;;;;;19.52;55.57;101409.28;5051491;28;19920;-60
2022/07/31 06:46:37;;;;;;;;;;;;;;;19.57;55.44;101404.41;5027389;28;19931;-58
2022/07/31 06:49:02;;;;;;;;;;;;;;;19.65;55.79;101401.09;5046807;28;19924;-59
2022/07/31 06:51:27;;;;;;;;;;;;;;;19.69;55.75;101401.66;5042012;28;20310;-61
2022/07/31 06:53:53;;;;;;;;;;;;;;;19.74;55.55;101402.94;5062505;22;19932;-56
2022/07/31 06:56:18;;;;;;;;;;;;;;;19.80;55.49;101399.75;5048015;28;19925;-57
2022/07/31 06:58:43;;;;;;;;;;;;;;;19.89;55.12;101403.47;5050342;28;19939;-58
2022/07/31 07:01:09;;;;;;;;;;;;;;;19.95;54.90;101396.75;5035030;28;20387;-56
2022/07/31 07:03:35;;;;;;;;;;;;;;;19.98;54.59;101395.63;5044393;28;20303;-57
2022/07/31 07:06:02;;;;;;;;;;;;;;;20.02;54.66;101392.59;5028343;28;20004;-58
2022/07/31 07:08:27;;;;;;;;;;;;;;;20.08;54.34;101396.53;5029253;28;20020;-55
2022/07/31 07:10:53;;;;;;;;;;;;;;;20.14;54.10;101397.81;5027675;28;20472;-56
2022/07/31 07:13:19;;;;;;;;;;;;;;;20.19;53.88;101387.56;5031960;28;20359;-55
2022/07/31 07:15:44;;;;;;;;;;;;;;;20.22;53.53;101388.16;5029835;28;20383;-57
2022/07/31 07:18:10;;;;;;;;;;;;;;;20.28;53.14;101392.09;5022246;28;19925;-57
2022/07/31 07:20:36;;;;;;;;;;;;;;;20.31;52.91;101386.47;5033452;28;20265;-55
2022/07/31 07:23:01;;;;;;;;;;;;;;;20.36;52.92;101394.91;5027737;28;20379;-60
2022/07/31 07:25:27;;;;;;;;;;;;;;;20.41;52.81;101392.69;5022164;28;19928;-54
2022/07/31 07:27:52;;;;;;;;;;;;;;;20.48;52.81;101392.16;5024614;28;19960;-55
2022/07/31 07:30:18;;;;;;;;;;;;;;;20.54;52.46;101392.44;5030635;28;20396;-56
2022/07/31 07:32:43;;;;;;;;;;;;;;;20.58;51.85;101393.00;5031233;28;19927;-58
2022/07/31 07:35:11;;;;;;;;;;;;;;;20.61;51.75;101395.41;5031579;28;19917;-53
2022/07/31 07:37:38;;;;;;;;;;;;;;;20.66;51.46;101395.81;5027321;28;20004;-54
2022/07/31 07:40:04;;;;;;;;;;;;;;;20.70;51.23;101386.53;5023362;28;19975;-54
2022/07/31 07:42:29;;;;;;;;;;;;;;;20.76;51.09;101389.69;5033746;28;19921;-54
2022/07/31 07:44:54;;;;;;;;;;;;;;;20.81;50.56;101379.38;5026124;28;20682;-56
2022/07/31 07:47:19;;;;;;;;;;;;;;;20.88;50.20;101388.53;5023672;28;19921;-54
2022/07/31 07:49:45;;;;;;;;;;;;;;;20.94;49.83;101385.31;5030465;28;19949;-54
2022/07/31 07:52:10;;;;;;;;;;;;;;;20.99;49.51;101383.03;5018765;28;19925;-56
2022/07/31 07:54:35;;;;;;;;;;;;;;;21.05;48.95;101384.31;5017873;28;20022;-58
2022/07/31 07:57:01;;;;;;;;;;;;;;;21.12;48.98;101384.59;5012526;28;19968;-55
2022/07/31 07:59:26;;;;;;;;;;;;;;;21.18;48.94;101389.38;5023242;28;20615;-54
2022/07/31 08:01:51;;;;;;;;;;;;;;;21.23;48.77;101378.25;5025605;28;20028;-56
2022/07/31 08:04:17;;;;;;;;;;;;;;;21.28;48.35;101379.50;5020487;28;20396;-58
2022/07/31 08:06:42;;;;;;;;;;;;;;;21.34;47.78;101378.06;5022180;28;20384;-56
2022/07/31 08:09:07;;;;;;;;;;;;;;;21.41;47.57;101381.88;5024839;28;19932;-56
2022/07/31 08:11:33;;;;;;;;;;;;;;;21.46;47.15;101374.25;5015707;28;20748;-55
2022/07/31 08:13:58;;;;;;;;;;;;;;;21.50;46.99;101374.81;5018175;28;19925;-55
2022/07/31 08:16:24;;;;;;;;;;;;;;;21.58;46.16;101374.91;5026574;28;19925;-55
2022/07/31 08:18:50;;;;;;;;;;;;;;;21.64;45.86;101372.69;5014106;28;19925;-54
2022/07/31 08:21:16;;;;;;;;;;;;;;;21.68;45.06;101376.75;5021722;28;20006;-53
2022/07/31 08:23:41;;;;;;;;;;;;;;;21.71;45.00;101374.63;5000256;28;19932;-54
2022/07/31 08:26:09;;;;;;;;;;;;;;;21.74;44.46;101382.38;5024212;28;19925;-60
2022/07/31 08:28:35;;;;;;;;;;;;;;;21.77;43.68;101378.56;5021273;28;20211;-56
2022/07/31 08:31:01;;;;;;;;;;;;;;;21.82;43.98;101372.75;5023107;28;19991;-60
2022/07/31 08:33:26;;;;;;;;;;;;;;;21.83;43.23;101372.63;5021106;28;20380;-58
2022/07/31 08:35:52;;;;;;;;;;;;;;;21.87;42.87;101373.16;5026716;28;20318;-55
2022/07/31 08:38:17;;;;;;;;;;;;;;;21.89;42.43;101369.31;5028375;28;19960;-58
2022/07/31 08:40:43;;;;;;;;;;;;;;;21.93;42.49;101361.88;5008375;28;19928;-54
2022/07/31 08:43:09;;;;;;;;;;;;;;;21.98;42.19;101369.44;5022784;28;20551;-57
2022/07/31 08:45:36;;;;;;;;;;;;;;;22.02;41.66;101368.13;5013171;28;19925;-57
2022/07/31 08:48:03;;;;;;;;;;;;;;;22.06;42.09;101366.84;5022571;28;19918;-57
2022/07/31 08:50:28;;;;;;;;;;;;;;;22.12;41.76;101368.09;5022689;28;19921;-58
2022/07/31 08:52:57;;;;;;;;;;;;;;;22.14;41.54;101352.72;5022630;28;19952;-55
2022/07/31 08:55:23;;;;;;;;;;;;;;;22.19;41.45;101366.50;5020747;28;19921;-55
2022/07/31 08:57:48;;;;;;;;;;;;;;;22.24;41.17;101364.22;5011219;28;19922;-54
2022/07/31 09:00:18;;;;;;;;;;;;;;;22.29;40.78;101361.09;5014744;28;19932;-55
2022/07/31 09:02:44;;;;;;;;;;;;;;;22.33;40.90;101352.59;5025566;28;20372;-56
2022/07/31 09:05:09;;;;;;;;;;;;;;;22.37;40.69;101356.66;5021070;28;19928;-55
2022/07/31 09:07:35;;;;;;;;;;;;;;;22.41;40.52;101357.19;5026887;28;20649;-59
2022/07/31 09:10:00;;;;;;;;;;;;;;;22.44;39.71;101356.94;5010365;28;19935;-56
2022/07/31 09:12:31;;;;;;;;;;;;;;;22.48;39.79;101347.56;5025655;28;19925;-56
2022/07/31 09:14:56;;;;;;;;;;;;;;;22.53;39.55;101352.50;5022510;28;19971;-57
2022/07/31 09:17:32;;;;;;;;;;;;;;;22.59;39.00;101353.72;5019319;28;19956;-58
2022/07/31 09:19:59;;;;;;;;;;;;;;;22.63;38.88;101344.34;5027542;28;20024;-58
2022/07/31 09:22:25;;;;;;;;;;;;;;;22.65;38.77;101340.53;5023652;28;19931;-53
2022/07/31 09:24:51;;;;;;;;;;;;;;;22.66;38.78;101341.38;5027045;28;20301;-53
2022/07/31 09:27:17;;;;;;;;;;;;;;;22.70;38.58;101342.75;5029578;28;19921;-53
2022/07/31 09:29:47;;;;;;;;;;;;;;;22.74;38.58;101343.28;5020252;28;19929;-53
2022/07/31 09:32:19;;;;;;;;;;;;;;;22.76;37.69;101341.28;5031901;28;19917;-57
2022/07/31 09:34:45;;;;;;;;;;;;;;;22.81;37.93;101339.84;5026595;28;19924;-57
2022/07/31 09:37:12;;;;;;;;;;;;;;;22.88;37.14;101341.91;5019020;28;19924;-55
2022/07/31 09:39:38;;;;;;;;;;;;;;;22.90;36.88;101342.59;5021488;28;19929;-55
2022/07/31 09:42:04;;;;;;;;;;;;;;;22.94;36.72;101346.63;5027557;28;19925;-54
2022/07/31 09:44:39;;;;;;;;;;;;;;;22.99;36.01;101336.28;5016531;28;19921;-56
2022/07/31 09:47:05;;;;;;;;;;;;;;;23.04;36.29;101333.13;5009443;28;20016;-55
2022/07/31 09:49:31;;;;;;;;;;;;;;;23.08;36.17;101332.66;5021424;28;20051;-54
2022/07/31 09:51:57;;;;;;;;;;;;;;;23.12;35.95;101336.72;5024481;28;20307;-54
2022/07/31 09:54:26;;;;;;;;;;;;;;;23.19;36.22;101336.09;5029281;28;19979;-56
2022/07/31 09:56:51;;;;;;;;;;;;;;;23.21;36.07;101320.72;5026573;28;20288;-57
2022/07/31 09:59:17;;;;;;;;;;;;;;;23.25;36.07;101330.09;5033312;28;19921;-54
2022/07/31 10:01:44;;;;;;;;;;;;;;;23.29;35.58;101326.13;5029129;28;19925;-54
2022/07/31 10:04:10;;;;;;;;;;;;;;;23.33;35.47;101330.19;5036056;28;19917;-53
2022/07/31 10:06:36;;;;;;;;;;;;;;;23.37;35.39;101328.84;5023844;28;19928;-53
2022/07/31 10:09:03;;;;;;;;;;;;;;;23.39;35.14;101324.16;5024024;28;19925;-53
2022/07/31 10:11:30;;;;;;;;;;;;;;;23.42;35.37;101321.16;5021547;28;19920;-54
2022/07/31 10:13:58;;;;;;;;;;;;;;;23.44;35.46;101319.16;5024595;28;19975;-53
2022/07/31 10:16:26;;;;;;;;;;;;;;;23.51;35.15;101315.84;5027138;28;20008;-53
2022/07/31 10:18:55;;;;;;;;;;;;;;;23.55;34.99;101309.13;5023845;28;19951;-58
2022/07/31 10:21:23;;;;;;;;;;;;;;;23.59;35.24;101306.00;5030280;28;19983;-53
2022/07/31 10:23:49;;;;;;;;;;;;;;;23.65;34.71;101314.38;5027561;28;19917;-56
2022/07/31 10:26:14;;;;;;;;;;;;;;;23.68;34.10;101309.53;5017266;28;20316;-56
2022/07/31 10:28:43;;;;;;;;;;;;;;;23.70;34.16;101294.09;5022084;28;19932;-56
2022/07/31 10:31:11;;;;;;;;;;;;;;;23.72;34.52;101293.94;5023435;28;20269;-55
2022/07/31 10:33:37;;;;;;;;;;;;;;;23.77;34.58;101290.75;5028350;28;19917;-56
2022/07/31 10:36:02;;;;;;;;;;;;;;;23.80;34.86;101303.88;5020748;28;21052;-54
2022/07/31 10:38:46;;;;;;;;;;;;;;;23.86;34.66;101303.22;5030139;28;19928;-56
2022/07/31 10:41:24;;;;;;;;;;;;;;;23.90;34.71;101300.03;5026520;28;19925;-55
2022/07/31 10:43:57;;;;;;;;;;;;;;;23.94;34.78;101300.56;5018233;28;19924;-54
2022/07/31 10:46:27;;;;;;;;;;;;;;;23.97;34.68;101308.34;5025236;28;19932;-54
2022/07/31 10:48:53;;;;;;;;;;;;;;;23.99;34.76;101298.25;5020448;28;19921;-55
2022/07/31 10:51:18;;;;;;;;;;;;;;;24.01;35.10;101303.47;5017212;28;19921;-56
2022/07/31 10:53:58;;;;;;;;;;;;;;;24.07;35.20;101299.28;5016429;28;19925;-56
2022/07/31 10:56:23;;;;;;;;;;;;;;;24.15;35.42;101300.16;5020294;28;19925;-59
2022/07/31 10:58:53;;;;;;;;;;;;;;;24.19;35.27;101293.44;5026864;28;19932;-58
2022/07/31 11:01:18;;;;;;;;;;;;;;;24.24;35.42;101286.72;5015988;28;20377;-56
2022/07/31 11:03:45;;;;;;;;;;;;;;;24.29;35.31;101290.56;5018255;28;19935;-56
2022/07/31 11:06:11;;;;;;;;;;;;;;;24.33;35.35;101285.72;5022103;28;20036;-60
2022/07/31 11:08:40;;;;;;;;;;;;;;;24.37;35.43;101278.16;5018845;28;19921;-57
2022/07/31 11:11:05;;;;;;;;;;;;;;;24.44;35.32;101281.84;5020065;28;19925;-57
2022/07/31 11:13:32;;;;;;;;;;;;;;;24.51;35.10;101272.13;5023429;28;19935;-57
2022/07/31 11:16:03;;;;;;;;;;;;;;;24.56;35.28;101275.16;5015800;28;19925;-53
2022/07/31 11:18:29;;;;;;;;;;;;;;;24.61;35.18;101272.78;5021575;28;19917;-57
2022/07/31 11:20:58;;;;;;;;;;;;;;;24.63;35.08;101278.84;5015869;28;20688;-54
2022/07/31 11:23:27;;;;;;;;;;;;;;;24.67;35.15;101271.25;5016800;28;20601;-56
2022/07/31 11:25:57;;;;;;;;;;;;;;;24.72;35.21;101278.88;5011580;28;19925;-54
2022/07/31 11:28:23;;;;;;;;;;;;;;;24.76;35.23;101272.97;5015289;28;19932;-56
2022/07/31 11:31:08;;;;;;;;;;;;;;;24.81;35.38;101272.47;5012727;28;19925;-58
2022/07/31 11:33:35;;;;;;;;;;;;;;;24.85;35.05;101273.81;5021012;28;19967;-55
2022/07/31 11:36:08;;;;;;;;;;;;;;;24.89;35.32;101269.75;5015804;28;21094;-53
2022/07/31 11:38:33;;;;;;;;;;;;;;;24.97;35.02;101266.22;5018802;28;19987;-53
2022/07/31 11:40:59;;;;;;;;;;;;;;;25.05;34.77;101273.44;5024888;28;20675;-55
2022/07/31 11:43:24;;;;;;;;;;;;;;;25.10;34.83;101271.94;5031235;28;19925;-55
2022/07/31 11:45:56;;;;;;;;;;;;;;;25.13;34.68;101268.03;5033698;28;20436;-58
2022/07/31 11:48:22;;;;;;;;;;;;;;;25.17;34.67;101273.91;5028666;28;19921;-56
2022/07/31 11:50:48;;;;;;;;;;;;;;;25.18;34.71;101268.38;5027444;28;19920;-57
2022/07/31 11:53:14;;;;;;;;;;;;;;;25.21;34.79;101267.19;5027807;28;20008;-55
2022/07/31 11:55:43;;;;;;;;;;;;;;;25.22;34.96;101258.91;5030016;28;20094;-57
2022/07/31 11:58:12;;;;;;;;;;;;;;;25.27;34.86;101266.47;5028981;28;19913;-56
2022/07/31 12:00:37;;;;;;;;;;;;;;;25.35;34.74;101257.53;5024714;28;20019;-58
2022/07/31 12:03:02;;;;;;;;;;;;;;;25.43;34.27;101271.00;5024811;28;20019;-59
2022/07/31 12:05:28;;;;;;;;;;;;;;;25.47;33.94;101256.19;5022664;28;19959;-57
2022/07/31 12:07:54;;;;;;;;;;;;;;;25.49;33.95;101254.13;5022206;28;20022;-58
2022/07/31 12:10:20;;;;;;;;;;;;;;;25.53;34.08;101255.47;5020363;28;19922;-58
2022/07/31 12:12:46;;;;;;;;;;;;;;;25.60;33.94;101249.38;5022057;28;20392;-56
2022/07/31 12:15:17;;;;;;;;;;;;;;;25.63;33.77;101244.47;5018789;28;19939;-54
2022/07/31 12:17:42;;;;;;;;;;;;;;;25.70;33.77;101252.69;5001344;28;20375;-57
2022/07/31 12:20:08;;;;;;;;;;;;;;;25.73;33.50;101246.97;5023932;28;20457;-57
2022/07/31 12:22:33;;;;;;;;;;;;;;;25.73;33.45;101244.25;5024627;28;19925;-56
2022/07/31 12:24:59;;;;;;;;;;;;;;;25.75;33.60;101233.28;5019381;28;19921;-55
2022/07/31 12:27:25;;;;;;;;;;;;;;;25.79;33.72;101240.00;5017532;28;19932;-58
2022/07/31 12:29:51;;;;;;;;;;;;;;;25.82;33.55;101232.41;5019348;28;19923;-59
2022/07/31 12:32:24;;;;;;;;;;;;;;;25.85;33.55;101233.94;5028151;28;19917;-56